• Join FlightAware (Why Join?)
  • Login
  • US Flag 
07:20PM EDT


 

Airport Tracker/Info


-or-


 

Live Flight TrackerFlight Track Log ✈ EJA831 ✈ 02-May-2013 ✈ KCRW - KIAD

Flight Track Log - Related Links

Times and Time Zones

All times are in EDT time to prevent confusion due to time zone crossing. See the EJA831 flight status page for this flight to view local times or setup timezone preferences in your user account.

Time Position Orientation Groundspeed Altitude Reporting Facility
EDT Latitude Longitude Course Direction KTS MPH feet Rate Location/Type
06:28PM 38.3528 -81.6286 82° East 173 199 3,500  Level Indianapolis Center
06:29PM 38.3169 -81.5967 145° Southeast 233 268 6,200 2,700 Climbing Indianapolis Center
06:30PM 38.3369 -81.5100 74° East 258 297 9,200 1,800 Climbing Indianapolis Center
06:32PM 38.3733 -81.4300 60° Northeast 263 303 10,000 1,200 Climbing Indianapolis Center
06:33PM 38.3908 -81.3217 78° East 311 358 11,800 2,460 Climbing Indianapolis Center
06:34PM 38.3803 -81.3272 82° East  Level FlightAware Approximate
06:34PM 38.4017 -81.1886 84° East 316 364 15,200  Level Indianapolis Center
06:35PM 38.4117 -81.0786 83° East 315 362 17,700 1,320 Climbing Indianapolis Center
06:36PM 38.4214 -80.9528 84° East 348 400 18,000 120 Climbing Indianapolis Center
06:37PM 38.4336 -80.8183 83° East 378 435 18,000  Level Indianapolis Center
06:38PM 38.4444 -80.6864 84° East 376 433 18,000  Level Indianapolis Center
06:39PM 38.4567 -80.5297 84° East 372 428 18,000 -180 Level Indianapolis Center
06:40PM 38.4664 -80.4122 84° East 372 428 17,700 -420 Descending Indianapolis Center
06:40PM 38.4733 -80.3417 83° East 368 423 17,400 -420 Descending Washington Center
06:41PM 38.4847 -80.2150 83° East 363 418 17,100 -180 Descending Washington Center
06:42PM 38.4911 -80.1011 86° East 363 418 17,100 -60 Level Washington Center
06:43PM 38.5042 -79.9694 83° East 363 418 17,000 -60 Descending Washington Center
06:44PM 38.5131 -79.8400 85° East 363 418 17,000  Level Washington Center
06:45PM 38.5217 -79.7131 85° East 363 418 17,000  Level Washington Center
06:46PM 38.5328 -79.5728 84° East 363 418 17,000  Level Washington Center
06:47PM 38.5408 -79.4458 85° East 363 418 17,000  Level Washington Center
06:48PM 38.5511 -79.3192 84° East 363 418 17,000  Level Washington Center
06:49PM 38.5614 -79.1867 84° East 363 418 17,000  Level Washington Center
06:50PM 38.5839 -79.0631 77° East 363 418 17,000  Level Washington Center
06:51PM 38.6228 -78.9481 67° East 358 412 17,000  Level Washington Center
06:52PM 38.6592 -78.8325 68° East 352 405 17,100 -540 Climbing Washington Center
06:53PM 38.6978 -78.7119 68° East 352 405 16,000 -1,500 Descending Washington Center
06:54PM 38.7342 -78.5964 68° East 352 405 14,200 -1,800 Descending Washington Center
06:55PM 38.7703 -78.4833 68° East 352 405 12,400 -1,560 Descending Washington Center
06:56PM 38.8019 -78.3781 69° East 341 392 11,100 -840 Descending Washington Center
06:57PM 38.8356 -78.2700 68° East 328 377 10,800 -1,140 Descending Washington Center
06:58PM 38.8628 -78.1722 70° East 312 359 8,900 -1,860 Descending Washington Center
06:59PM 38.8856 -78.0797 72° East 283 326 7,100 -1,440 Descending Washington Center
07:00PM 38.9083 -77.9872 72° East 272 313 6,100 -540 Descending Washington Center
07:01PM 38.9308 -77.8972 72° East 262 302 6,100  Level Washington Center
07:02PM 38.9533 -77.8097 72° East 257 296 6,100  Level Washington Center
07:03PM 38.9614 -77.7192 83° East 257 296 6,100  Level Washington Center
07:05PM 38.9833 -77.6000 77° East 264 304 6,100 -480 Level Potomac TRACON
07:06PM 39.0500 -77.5667 21° North 241 277 5,000 -1,200 Descending Potomac TRACON
07:07PM 39.1000 -77.5333 27° Northeast 209 241 3,800 -1,080 Descending Potomac TRACON
07:08PM 39.0667 -77.4833 131° Southeast 182 209 2,900 -1,080 Descending Potomac TRACON
07:09PM 39.0167 -77.4667 165° South 149 171 1,700 -1,140 Descending Potomac TRACON
07:10PM 38.9833 -77.4667 180° South 124 143 700 -1,020 Descending Potomac TRACON
07:12PM 38.9474 -77.4599 83° East  Level Estimated
07:19PM 38.9474 -77.4599 83° East  Level Estimated
07:20PM 38.9474 -77.4599 83° East  Level Estimated
07:21PM 38.9474 -77.4599 83° East  Level Estimated